Terminal Aerodrome Forecast
Issued by NWS King Salmon, AK

Home | Current Version | Previous Version | Text Only | Print | Product List | Glossary On
Versions: 1 2 3 4 5 6 7 8 9 10 11 12 13 14 15 16 17 18 19
000
FTAK31 PANC 151152
TAFAKN
TAF
PAKN 151152Z 1512/1612 09010KT P6SM SKC
     FM151400 10014G23KT P6SM SCT020 BKN080
     FM151600 11020G30KT P6SM -SHRASN SCT010 OVC025
     FM152200 17012G18KT P6SM -SHRA SCT020 OVC050
     FM160200 17008KT P6SM VCSH SCT040 BKN080=

USA.gov is the U.S. government's official web portal to all federal, state and local government web resources and services.